Decoded Metar for UKHH (KHARKOV in UKRAINE) (IATA:N/A) | Meteo·Mobile Aviation Weather
aviador You're here:

UKHH Decoded Metar

KHARKOV in UKRAINE
Report Time2019-09-21 09:30:00
UTC Time2019-09-21 09:44:22
Flight Rules vfr VFR
Wind310° at 10 kt
W.Decomp.*RWY 25: 6.2 kt HW 7.9 kt RCW
Visibility9999 m
Phenomena:N/A
Clouds:Scattered CB 031 Hf
Scattered 047 Hf
Expected CloudBase > 3,200 ft AGL from Temp-Dew spread
CeilingNone
Temp11°C (ISA -3)
Dew Point03°C (58% RH)
AAT5.9°C
QNH1017 hPa
Density Alt125 ft
Elevation509 ft
Report Wrong Elevation
Raw Report
UKHH 210930Z 31005MPS 290V350 9999 SCT031CB SCT047 11/03 Q1017
R25/0///81 NOSIG=

Extra information for UKHH:More info

Metar Taf Metar & Taf Last 4 Metars F.Rules Stats Wind Profile Meteogram Temp Stats Airport Information Weather charts Add Link Nearby VenuesMetar ALERT Operation Metar Decoded Social comments